Time;durP1;ratioP1;P1;durP2;ratioP2;P2;SDS_P1;SDS_P2;PMS_P1;PMS_P2;Temp;Humidity;BMP_temperature;BMP_pressure;BME280_temperature;BME280_humidity;BME280_pressure;Samples;Min_cycle;Max_cycle;Signal;HPM_P1;HPM_P2
2021/12/27 00:02:17;;;;;;;42.00;20.83;;;7.80;99.90;;;;;;5081270;28;20238;-63
2021/12/27 00:04:46;;;;;;;38.67;19.53;;;7.80;99.90;;;;;;5074226;28;20202;-63
2021/12/27 00:07:15;;;;;;;48.80;21.13;;;7.80;99.90;;;;;;5071633;28;20204;-64
2021/12/27 00:09:44;;;;;;;44.93;21.80;;;7.80;99.90;;;;;;5079438;28;20615;-63
2021/12/27 00:12:12;;;;;;;48.50;20.97;;;7.90;99.90;;;;;;5077788;28;20204;-64
2021/12/27 00:14:42;;;;;;;46.13;21.93;;;8.00;99.90;;;;;;5057654;28;20223;-63
2021/12/27 00:17:10;;;;;;;45.90;21.57;;;7.90;99.90;;;;;;5077595;28;20277;-64
2021/12/27 00:19:38;;;;;;;52.37;22.90;;;7.90;99.90;;;;;;5074736;28;20275;-63
2021/12/27 00:22:07;;;;;;;46.17;21.93;;;7.90;99.90;;;;;;5070871;28;20273;-64
2021/12/27 00:24:35;;;;;;;45.43;20.53;;;7.90;99.90;;;;;;5078848;28;20196;-64
2021/12/27 00:27:04;;;;;;;38.87;20.17;;;7.90;99.90;;;;;;5086930;28;20203;-64
2021/12/27 00:29:32;;;;;;;42.80;21.50;;;8.00;99.90;;;;;;5073982;28;20227;-64
2021/12/27 00:32:02;;;;;;;42.20;21.20;;;8.00;99.90;;;;;;5053816;28;20200;-64
2021/12/27 00:34:30;;;;;;;46.20;21.63;;;7.90;99.90;;;;;;5067069;28;20206;-63
2021/12/27 00:36:59;;;;;;;45.80;21.40;;;7.90;99.90;;;;;;5082300;28;20771;-63
2021/12/27 00:39:27;;;;;;;42.83;20.90;;;7.90;99.90;;;;;;5076347;28;20227;-63
2021/12/27 00:41:55;;;;;;;45.37;21.00;;;7.90;99.90;;;;;;5059893;28;20290;-64
2021/12/27 00:44:24;;;;;;;47.60;20.73;;;7.90;99.90;;;;;;5075594;28;20270;-64
2021/12/27 00:46:52;;;;;;;46.47;21.23;;;7.90;99.90;;;;;;5076558;28;20215;-63
2021/12/27 00:49:22;;;;;;;46.73;20.57;;;8.00;99.90;;;;;;5080554;28;20196;-64
2021/12/27 00:51:51;;;;;;;45.60;21.13;;;7.90;99.90;;;;;;5062333;28;21701;-64
2021/12/27 00:54:19;;;;;;;42.10;20.97;;;7.90;99.90;;;;;;5081514;28;20286;-63
2021/12/27 00:56:47;;;;;;;41.13;21.53;;;7.90;99.90;;;;;;5063326;28;20251;-63
2021/12/27 00:59:16;;;;;;;45.87;21.27;;;7.90;99.90;;;;;;5082719;28;20204;-64
2021/12/27 01:01:45;;;;;;;44.20;21.73;;;8.00;99.90;;;;;;5080218;28;20191;-63
2021/12/27 01:04:13;;;;;;;44.57;21.27;;;7.90;99.90;;;;;;5069668;28;20191;-64
2021/12/27 01:06:47;;;;;;;48.53;20.93;;;7.90;99.90;;;;;;5064471;28;20195;-64
2021/12/27 01:09:26;;;;;;;46.53;21.30;;;7.90;99.90;;;;;;5057849;28;20191;-64
2021/12/27 01:12:11;;;;;;;48.80;22.07;;;7.90;99.90;;;;;;5075733;28;20205;-64
2021/12/27 01:14:43;;;;;;;42.17;21.20;;;8.00;99.90;;;;;;5084177;28;20265;-64
2021/12/27 01:17:12;;;;;;;46.23;21.80;;;8.00;99.90;;;;;;5080728;28;20227;-64
2021/12/27 01:19:40;;;;;;;43.77;21.67;;;8.00;99.90;;;;;;5081041;28;20653;-64
2021/12/27 01:22:10;;;;;;;47.17;22.20;;;7.90;99.90;;;;;;5074735;28;20204;-64
2021/12/27 01:24:39;;;;;;;48.83;21.17;;;8.00;99.90;;;;;;5077830;28;20218;-64
2021/12/27 01:27:07;;;;;;;51.40;22.53;;;8.00;99.90;;;;;;5082120;28;20188;-63
2021/12/27 01:29:35;;;;;;;46.80;22.10;;;8.00;99.90;;;;;;5074641;28;20220;-64
2021/12/27 01:32:05;;;;;;;49.67;21.77;;;8.10;99.90;;;;;;5078430;28;20207;-63
2021/12/27 01:34:33;;;;;;;52.60;21.67;;;8.20;99.90;;;;;;5081344;28;20199;-64
2021/12/27 01:37:02;;;;;;;47.17;22.30;;;8.10;99.90;;;;;;5078232;28;20777;-64
2021/12/27 01:39:32;;;;;;;50.63;23.00;;;8.10;99.90;;;;;;5081959;28;20199;-64
2021/12/27 01:42:00;;;;;;;58.07;23.07;;;8.10;99.90;;;;;;5077602;28;20193;-64
2021/12/27 01:44:31;;;;;;;53.70;23.00;;;8.10;99.90;;;;;;5056477;28;20679;-64
2021/12/27 01:47:00;;;;;;;52.77;23.43;;;8.00;99.90;;;;;;5081824;28;20204;-64
2021/12/27 01:49:28;;;;;;;55.93;24.57;;;8.10;99.90;;;;;;5082885;28;20621;-64
2021/12/27 01:51:57;;;;;;;54.13;22.83;;;8.10;99.90;;;;;;5073544;28;20208;-64
2021/12/27 01:54:26;;;;;;;48.80;23.20;;;8.10;99.90;;;;;;5079129;28;20283;-64
2021/12/27 01:56:56;;;;;;;56.17;23.33;;;8.10;99.90;;;;;;5074885;28;20212;-64
2021/12/27 01:59:24;;;;;;;56.23;23.70;;;8.10;99.90;;;;;;5073919;28;20270;-64
2021/12/27 02:01:53;;;;;;;52.73;24.20;;;8.10;99.90;;;;;;5057628;28;20210;-64
2021/12/27 02:04:22;;;;;;;50.33;22.00;;;8.10;99.90;;;;;;5076146;28;20192;-64
2021/12/27 02:06:51;;;;;;;53.07;22.07;;;8.10;99.90;;;;;;5077159;28;20231;-64
2021/12/27 02:09:25;;;;;;;45.60;22.70;;;8.10;99.90;;;;;;5078778;28;20192;-63
2021/12/27 02:11:55;;;;;;;55.57;23.43;;;8.10;99.90;;;;;;5076937;28;20205;-64
2021/12/27 02:14:24;;;;;;;49.07;23.00;;;8.10;99.90;;;;;;5075153;28;20231;-64
2021/12/27 02:16:52;;;;;;;50.53;22.63;;;8.10;99.90;;;;;;5055310;28;20212;-64
2021/12/27 02:19:20;;;;;;;53.17;22.87;;;8.20;99.90;;;;;;5076070;28;20629;-64
2021/12/27 02:21:50;;;;;;;58.07;22.70;;;8.20;99.90;;;;;;5056498;28;20282;-63
2021/12/27 02:24:19;;;;;;;57.53;22.83;;;8.20;99.90;;;;;;5075981;28;20206;-64
2021/12/27 02:26:47;;;;;;;53.53;22.87;;;8.20;99.90;;;;;;5077982;28;20196;-64
2021/12/27 02:29:16;;;;;;;53.63;22.50;;;8.20;99.90;;;;;;5079857;28;20227;-64
2021/12/27 02:31:47;;;;;;;56.93;23.37;;;8.20;99.90;;;;;;5076759;28;20223;-64
2021/12/27 02:34:15;;;;;;;56.73;23.27;;;8.30;99.90;;;;;;5076867;28;20208;-64
2021/12/27 02:36:45;;;;;;;53.37;21.87;;;8.30;99.90;;;;;;5075802;28;20678;-64
2021/12/27 02:39:15;;;;;;;57.63;22.33;;;8.30;99.90;;;;;;5060080;28;20248;-63
2021/12/27 02:41:43;;;;;;;51.20;23.00;;;8.30;99.90;;;;;;5079162;28;20259;-63
2021/12/27 02:44:12;;;;;;;51.47;23.27;;;8.30;99.90;;;;;;5074904;28;20192;-64
2021/12/27 02:46:41;;;;;;;52.77;21.90;;;8.30;99.90;;;;;;5055494;28;20202;-64
2021/12/27 02:49:10;;;;;;;58.93;22.50;;;8.30;99.90;;;;;;5080379;28;20223;-64
2021/12/27 02:51:39;;;;;;;57.23;23.57;;;8.30;99.90;;;;;;5081501;28;20214;-64
2021/12/27 02:54:07;;;;;;;55.27;23.17;;;8.30;99.90;;;;;;5078240;28;20204;-64
2021/12/27 02:56:37;;;;;;;55.43;22.40;;;8.20;99.90;;;;;;5078151;28;20307;-64
2021/12/27 02:59:06;;;;;;;63.83;23.80;;;8.20;99.90;;;;;;5079503;28;20210;-64
2021/12/27 03:01:34;;;;;;;61.40;23.53;;;8.20;99.90;;;;;;5061162;28;20192;-64
2021/12/27 03:04:03;;;;;;;59.17;23.30;;;8.10;99.90;;;;;;5078762;28;20317;-64
2021/12/27 03:06:32;;;;;;;51.73;23.60;;;8.10;99.90;;;;;;5074615;28;20249;-64
2021/12/27 03:09:01;;;;;;;62.77;24.27;;;8.20;99.90;;;;;;5070188;28;20227;-64
2021/12/27 03:11:29;;;;;;;60.70;23.30;;;8.20;99.90;;;;;;5079922;28;20195;-64
2021/12/27 03:13:59;;;;;;;54.67;22.23;;;8.10;99.90;;;;;;5058859;28;20196;-64
2021/12/27 03:16:31;;;;;;;48.20;21.77;;;8.10;99.90;;;;;;5056231;28;20216;-64
2021/12/27 03:18:59;;;;;;;60.60;23.60;;;8.10;99.90;;;;;;5058554;28;20215;-64
2021/12/27 03:21:28;;;;;;;50.50;22.63;;;8.00;99.90;;;;;;5081494;28;20203;-63
2021/12/27 03:23:57;;;;;;;54.80;22.63;;;8.00;99.90;;;;;;5074525;28;20199;-64
2021/12/27 03:26:28;;;;;;;57.30;22.80;;;8.00;99.90;;;;;;5071460;28;20199;-64
2021/12/27 03:28:56;;;;;;;58.63;24.03;;;8.00;99.90;;;;;;5058253;28;20658;-64
2021/12/27 03:31:26;;;;;;;66.70;25.10;;;8.00;99.90;;;;;;5061886;28;20227;-64
2021/12/27 03:33:56;;;;;;;60.97;24.63;;;8.10;99.90;;;;;;5072782;28;20233;-64
2021/12/27 03:36:28;;;;;;;67.87;23.83;;;8.10;99.90;;;;;;5076742;28;20200;-64
2021/12/27 03:38:56;;;;;;;61.80;24.03;;;8.20;99.90;;;;;;5072035;28;20207;-64
2021/12/27 03:41:26;;;;;;;56.20;23.07;;;8.10;99.90;;;;;;5077536;28;20256;-64
2021/12/27 03:43:54;;;;;;;63.53;24.37;;;8.20;99.90;;;;;;5062940;28;20219;-64
2021/12/27 03:46:23;;;;;;;56.10;23.33;;;8.20;99.90;;;;;;5081280;28;20233;-64
2021/12/27 03:48:53;;;;;;;56.43;24.13;;;8.20;99.90;;;;;;5078329;28;20195;-64
2021/12/27 03:51:22;;;;;;;57.13;23.47;;;8.30;99.90;;;;;;5078454;28;20196;-64
2021/12/27 03:53:51;;;;;;;59.97;22.80;;;8.20;99.90;;;;;;5077451;28;20238;-64
2021/12/27 03:56:23;;;;;;;66.70;22.93;;;8.20;99.90;;;;;;5075933;28;20208;-63
2021/12/27 03:58:57;;;;;;;63.80;23.10;;;8.20;99.90;;;;;;5066412;28;20246;-64
2021/12/27 04:01:27;;;;;;;61.53;24.40;;;8.30;99.90;;;;;;5073279;28;20592;-64
2021/12/27 04:03:58;;;;;;;59.80;23.17;;;8.30;99.90;;;;;;5079407;28;20218;-64
2021/12/27 04:06:28;;;;;;;59.40;23.30;;;8.30;99.90;;;;;;5074392;28;20196;-64
2021/12/27 04:08:56;;;;;;;58.23;23.43;;;8.30;99.90;;;;;;5053835;28;20204;-64
2021/12/27 04:11:25;;;;;;;58.70;23.27;;;8.40;99.90;;;;;;5057107;28;20252;-64
2021/12/27 04:13:58;;;;;;;55.13;21.63;;;8.40;99.90;;;;;;5048554;28;20195;-64
2021/12/27 04:16:27;;;;;;;58.60;22.33;;;8.30;99.90;;;;;;5057886;28;20283;-64
2021/12/27 04:18:57;;;;;;;57.23;22.90;;;8.30;99.90;;;;;;5058052;28;20207;-64
2021/12/27 04:21:25;;;;;;;54.70;22.83;;;8.30;99.90;;;;;;5080272;28;20275;-64
2021/12/27 04:23:54;;;;;;;50.03;20.10;;;8.30;99.90;;;;;;5077243;28;20208;-64
2021/12/27 04:26:23;;;;;;;51.43;21.10;;;8.30;99.90;;;;;;5074649;28;20201;-64
2021/12/27 04:28:52;;;;;;;50.63;19.70;;;8.30;99.90;;;;;;5081283;28;20196;-64
2021/12/27 04:31:20;;;;;;;49.77;20.23;;;8.30;99.90;;;;;;5079278;28;20199;-64
2021/12/27 04:33:49;;;;;;;46.77;20.43;;;8.30;99.90;;;;;;5081922;28;20218;-64
2021/12/27 04:36:19;;;;;;;52.33;21.03;;;8.30;99.90;;;;;;5084730;28;20196;-63
2021/12/27 04:38:47;;;;;;;49.93;20.40;;;8.30;99.90;;;;;;5080116;28;20221;-64
2021/12/27 04:41:21;;;;;;;48.40;20.30;;;8.20;99.90;;;;;;5077762;28;20198;-64
2021/12/27 04:43:50;;;;;;;51.57;20.20;;;8.20;99.90;;;;;;5079876;28;20680;-64
2021/12/27 04:46:18;;;;;;;59.77;21.27;;;8.20;99.90;;;;;;5092458;28;20215;-64
2021/12/27 04:48:51;;;;;;;59.50;21.37;;;8.20;99.90;;;;;;5061858;28;20203;-64
2021/12/27 04:51:21;;;;;;;63.30;23.60;;;8.20;99.90;;;;;;5075737;28;20250;-63
2021/12/27 04:53:50;;;;;;;65.93;24.03;;;8.20;99.90;;;;;;5087719;28;20624;-64
2021/12/27 04:56:19;;;;;;;61.17;23.93;;;8.20;99.90;;;;;;5082019;28;20195;-64
2021/12/27 04:58:47;;;;;;;57.13;22.93;;;8.20;99.90;;;;;;5065386;28;20250;-64
2021/12/27 05:01:16;;;;;;;57.07;21.47;;;8.20;99.90;;;;;;5058962;28;20192;-64
2021/12/27 05:03:45;;;;;;;57.63;22.53;;;8.20;99.90;;;;;;5078343;28;20326;-64
2021/12/27 05:06:14;;;;;;;56.30;21.43;;;8.30;99.90;;;;;;5069190;28;20212;-64
2021/12/27 05:08:44;;;;;;;51.33;20.50;;;8.20;99.90;;;;;;5076310;28;20223;-64
2021/12/27 05:11:12;;;;;;;54.07;20.90;;;8.20;99.90;;;;;;5078842;28;20270;-64
2021/12/27 05:13:42;;;;;;;45.43;18.73;;;8.20;99.90;;;;;;5089796;28;20228;-64
2021/12/27 05:16:10;;;;;;;42.07;18.90;;;8.20;99.90;;;;;;5058767;28;20283;-64
2021/12/27 05:18:39;;;;;;;46.73;16.60;;;8.20;99.90;;;;;;5079336;28;20231;-64
2021/12/27 05:21:08;;;;;;;41.87;17.30;;;8.30;99.90;;;;;;5060869;28;20192;-64
2021/12/27 05:23:36;;;;;;;38.93;17.30;;;8.30;99.90;;;;;;5073468;28;20195;-64
2021/12/27 05:26:06;;;;;;;36.93;15.80;;;8.20;99.90;;;;;;5076795;28;20283;-64
2021/12/27 05:28:35;;;;;;;35.87;15.37;;;8.20;99.90;;;;;;5077691;28;20195;-64
2021/12/27 05:31:03;;;;;;;38.77;16.43;;;8.20;99.90;;;;;;5073336;28;20208;-64
2021/12/27 05:33:32;;;;;;;34.30;15.77;;;8.20;99.90;;;;;;5068352;28;20279;-64
2021/12/27 05:36:01;;;;;;;34.33;15.37;;;8.20;99.90;;;;;;5076740;28;20199;-64
2021/12/27 05:38:29;;;;;;;36.43;15.13;;;8.20;99.90;;;;;;5076066;28;20281;-64
2021/12/27 05:40:58;;;;;;;32.10;13.10;;;8.30;99.90;;;;;;5076724;28;20196;-65
2021/12/27 05:43:30;;;;;;;34.20;14.30;;;8.30;99.90;;;;;;5076348;28;20561;-64
2021/12/27 05:45:59;;;;;;;31.23;14.10;;;8.30;99.90;;;;;;5080619;28;20231;-64
2021/12/27 05:48:28;;;;;;;29.73;14.17;;;8.30;99.90;;;;;;5076953;28;20192;-64
2021/12/27 05:50:56;;;;;;;23.60;12.53;;;8.30;99.90;;;;;;5076959;28;20196;-64
2021/12/27 05:53:25;;;;;;;28.43;13.27;;;8.20;99.90;;;;;;5079015;28;20200;-64
2021/12/27 05:55:53;;;;;;;26.73;12.40;;;8.10;99.90;;;;;;5060788;28;20253;-64
2021/12/27 05:58:22;;;;;;;23.30;11.63;;;8.00;99.90;;;;;;5079231;28;20222;-64
2021/12/27 06:00:51;;;;;;;24.40;11.23;;;7.90;99.90;;;;;;5070897;28;20681;-64
2021/12/27 06:03:26;;;;;;;23.47;11.57;;;7.80;99.90;;;;;;5075217;28;20289;-64
2021/12/27 06:05:55;;;;;;;22.53;12.17;;;7.80;99.90;;;;;;5057517;28;20180;-64
2021/12/27 06:08:23;;;;;;;24.53;11.70;;;7.70;99.90;;;;;;5061463;28;20187;-64
2021/12/27 06:10:51;;;;;;;30.23;12.47;;;7.70;99.90;;;;;;5042648;28;20256;-64
2021/12/27 06:13:20;;;;;;;25.33;12.33;;;7.60;99.90;;;;;;5076626;28;20275;-64
2021/12/27 06:15:48;;;;;;;25.27;12.47;;;7.60;99.90;;;;;;5026793;28;1412237;-64
2021/12/27 06:18:18;;;;;;;27.30;11.83;;;7.60;99.90;;;;;;5059085;28;20211;-64
2021/12/27 06:20:46;;;;;;;25.87;11.80;;;7.60;99.90;;;;;;5069654;28;20607;-64
2021/12/27 06:23:14;;;;;;;22.73;11.97;;;7.60;99.90;;;;;;5081892;28;20231;-64
2021/12/27 06:25:43;;;;;;;26.00;12.20;;;7.70;99.90;;;;;;5078721;28;20322;-64
2021/12/27 06:28:12;;;;;;;27.17;12.13;;;7.70;99.90;;;;;;5075990;28;20192;-64
2021/12/27 06:30:42;;;;;;;23.70;11.77;;;7.70;99.90;;;;;;5077111;28;20577;-64
2021/12/27 06:33:10;;;;;;;21.43;11.27;;;7.70;99.90;;;;;;5079847;28;20191;-64
2021/12/27 06:35:40;;;;;;;27.03;12.13;;;7.70;99.90;;;;;;5071396;28;20294;-64
2021/12/27 06:38:09;;;;;;;27.70;11.57;;;7.70;99.90;;;;;;5082914;28;20275;-64
2021/12/27 06:40:37;;;;;;;28.27;11.30;;;7.70;99.90;;;;;;5069872;28;20252;-64
2021/12/27 06:43:06;;;;;;;19.20;10.67;;;7.70;99.90;;;;;;5070499;28;20236;-64
2021/12/27 06:45:34;;;;;;;26.77;11.27;;;7.70;99.90;;;;;;5074709;28;20651;-63
2021/12/27 06:48:03;;;;;;;22.00;9.70;;;7.70;99.90;;;;;;5057414;28;20183;-64
2021/12/27 06:50:31;;;;;;;20.57;11.17;;;7.70;99.90;;;;;;5080823;28;20204;-64
2021/12/27 06:53:01;;;;;;;23.87;11.13;;;7.70;99.90;;;;;;5058964;28;20275;-64
2021/12/27 06:55:30;;;;;;;25.33;10.73;;;7.70;99.90;;;;;;5077578;28;20945;-64
2021/12/27 06:57:58;;;;;;;22.23;10.60;;;7.60;99.90;;;;;;5075259;28;20628;-64
2021/12/27 07:00:27;;;;;;;20.40;10.03;;;7.60;99.90;;;;;;5058330;28;20971;-64
2021/12/27 07:02:55;;;;;;;20.03;10.20;;;7.60;99.90;;;;;;5076977;28;20199;-63
2021/12/27 07:05:24;;;;;;;17.83;10.67;;;7.50;99.90;;;;;;5078669;28;20195;-64
2021/12/27 07:07:52;;;;;;;18.90;10.03;;;7.60;99.90;;;;;;5068648;28;20245;-64
2021/12/27 07:10:22;;;;;;;18.53;10.37;;;7.60;99.90;;;;;;5076839;28;20205;-64
2021/12/27 07:12:51;;;;;;;22.43;10.43;;;7.60;99.90;;;;;;5073815;28;20293;-64
2021/12/27 07:15:19;;;;;;;19.63;11.30;;;7.70;99.90;;;;;;5078449;28;20253;-63
2021/12/27 07:17:48;;;;;;;17.97;10.27;;;7.70;99.90;;;;;;5059611;28;20223;-64
2021/12/27 07:20:16;;;;;;;18.80;10.90;;;7.60;99.90;;;;;;5072412;28;20286;-64
2021/12/27 07:22:44;;;;;;;19.43;10.60;;;7.60;99.90;;;;;;5082375;28;20249;-64
2021/12/27 07:25:13;;;;;;;16.60;10.77;;;7.70;99.90;;;;;;5065080;28;20689;-64
2021/12/27 07:27:42;;;;;;;19.13;10.93;;;7.70;99.90;;;;;;5074184;28;20223;-64
2021/12/27 07:30:13;;;;;;;20.87;11.10;;;7.80;99.90;;;;;;5077877;28;20187;-64
2021/12/27 07:32:41;;;;;;;20.70;11.60;;;7.80;99.90;;;;;;5058256;28;20279;-64
2021/12/27 07:35:11;;;;;;;19.70;11.03;;;7.80;99.90;;;;;;5076619;28;20206;-64
2021/12/27 07:37:40;;;;;;;18.60;10.97;;;7.80;99.90;;;;;;5078784;28;20261;-64
2021/12/27 07:40:09;;;;;;;21.07;12.17;;;7.80;99.90;;;;;;5077251;28;20244;-64
2021/12/27 07:42:38;;;;;;;19.17;11.27;;;7.80;99.90;;;;;;5081622;28;20247;-64
2021/12/27 07:45:09;;;;;;;19.27;11.50;;;7.80;99.90;;;;;;5071769;28;20704;-64
2021/12/27 07:47:38;;;;;;;21.87;12.50;;;7.90;99.90;;;;;;5060440;28;20196;-64
2021/12/27 07:50:07;;;;;;;28.00;12.00;;;7.80;99.90;;;;;;5072689;28;20277;-64
2021/12/27 07:52:36;;;;;;;22.10;11.00;;;7.90;99.90;;;;;;5081753;28;20751;-64
2021/12/27 07:55:05;;;;;;;19.73;11.43;;;7.80;99.90;;;;;;5078101;28;20234;-64
2021/12/27 07:57:34;;;;;;;21.27;11.77;;;7.90;99.90;;;;;;5061067;28;20187;-64
2021/12/27 08:00:03;;;;;;;21.70;11.73;;;7.90;99.90;;;;;;5081420;28;20211;-64
2021/12/27 08:02:33;;;;;;;22.60;11.67;;;7.90;99.90;;;;;;5061194;28;20188;-64
2021/12/27 08:05:04;;;;;;;22.93;11.93;;;8.00;99.90;;;;;;5075476;28;20215;-64
2021/12/27 08:07:33;;;;;;;22.80;11.47;;;7.90;99.90;;;;;;5070546;28;20195;-64
2021/12/27 08:10:01;;;;;;;20.97;11.27;;;7.90;99.90;;;;;;5079194;28;20257;-64
2021/12/27 08:12:30;;;;;;;23.03;11.17;;;8.00;99.90;;;;;;5083914;28;20723;-64
2021/12/27 08:14:58;;;;;;;22.67;11.50;;;8.00;99.90;;;;;;5082002;28;20674;-64
2021/12/27 08:17:27;;;;;;;21.87;11.30;;;8.00;99.90;;;;;;5074869;28;20195;-64
2021/12/27 08:19:57;;;;;;;21.90;11.33;;;8.00;99.90;;;;;;5060863;28;20203;-64
2021/12/27 08:22:25;;;;;;;26.07;10.43;;;8.00;99.90;;;;;;5079150;28;20219;-64
2021/12/27 08:24:54;;;;;;;20.57;10.90;;;8.10;99.90;;;;;;5057598;28;20223;-64
2021/12/27 08:27:25;;;;;;;25.07;11.83;;;8.10;99.90;;;;;;5073408;28;20265;-64
2021/12/27 08:29:54;;;;;;;26.73;11.80;;;8.10;99.90;;;;;;5062967;28;20253;-64
2021/12/27 08:32:22;;;;;;;29.30;11.83;;;8.10;99.90;;;;;;5077865;28;20199;-64
2021/12/27 08:34:51;;;;;;;21.43;11.63;;;8.10;99.90;;;;;;5077555;28;20222;-64
2021/12/27 08:37:20;;;;;;;22.70;10.87;;;8.10;99.90;;;;;;5074458;28;20287;-64
2021/12/27 08:39:49;;;;;;;25.90;11.10;;;8.20;99.90;;;;;;5076791;28;20300;-64
2021/12/27 08:42:22;;;;;;;21.13;10.80;;;8.20;99.90;;;;;;5077565;28;20204;-64
2021/12/27 08:44:53;;;;;;;21.07;11.23;;;8.20;99.90;;;;;;5077512;28;20192;-64
2021/12/27 08:47:22;;;;;;;20.60;10.60;;;8.30;99.90;;;;;;5072932;28;20281;-63
2021/12/27 08:49:51;;;;;;;22.90;11.10;;;8.30;99.90;;;;;;5074075;28;20192;-64
2021/12/27 08:52:34;;;;;;;27.23;11.27;;;8.30;99.90;;;;;;5075772;28;20202;-64
2021/12/27 08:55:03;;;;;;;22.97;11.50;;;8.30;99.90;;;;;;5057756;28;20284;-64
2021/12/27 08:57:34;;;;;;;25.40;12.00;;;8.30;99.90;;;;;;5065553;28;20188;-64
2021/12/27 09:00:07;;;;;;;21.23;12.00;;;8.30;99.90;;;;;;5075862;28;20203;-64
2021/12/27 09:02:38;;;;;;;22.47;11.30;;;8.40;99.90;;;;;;5061491;28;20188;-64
2021/12/27 09:05:07;;;;;;;22.80;12.33;;;8.40;99.90;;;;;;5053115;28;20188;-64
2021/12/27 09:07:37;;;;;;;21.87;11.90;;;8.50;99.90;;;;;;5045529;28;20234;-64
2021/12/27 09:10:08;;;;;;;20.17;11.83;;;8.50;99.90;;;;;;5079103;28;20227;-64
2021/12/27 09:12:38;;;;;;;17.20;10.33;;;8.60;99.90;;;;;;5077352;28;20242;-64
2021/12/27 09:15:07;;;;;;;23.00;13.80;;;8.60;99.90;;;;;;5083003;28;20237;-64
2021/12/27 09:17:35;;;;;;;23.03;11.73;;;8.70;99.90;;;;;;5061442;28;20275;-64
2021/12/27 09:20:05;;;;;;;15.03;9.50;;;8.70;99.90;;;;;;5074999;28;20243;-64
2021/12/27 09:22:33;;;;;;;15.83;10.50;;;8.80;99.90;;;;;;5076147;28;20673;-64
2021/12/27 09:25:04;;;;;;;22.60;12.87;;;8.90;99.90;;;;;;5080475;28;20689;-64
2021/12/27 09:27:32;;;;;;;15.40;9.40;;;8.90;99.90;;;;;;5080962;28;20738;-64
2021/12/27 09:30:01;;;;;;;14.43;9.30;;;8.90;99.90;;;;;;5079513;28;20226;-64
2021/12/27 09:32:29;;;;;;;11.70;9.57;;;8.90;99.90;;;;;;5072441;28;20224;-64
2021/12/27 09:35:00;;;;;;;15.50;10.83;;;8.90;99.90;;;;;;5063684;28;20203;-64
2021/12/27 09:37:28;;;;;;;18.83;11.47;;;8.90;99.90;;;;;;5074894;28;20318;-64
2021/12/27 09:39:56;;;;;;;14.30;9.30;;;9.10;99.90;;;;;;5079418;28;20298;-64
2021/12/27 09:42:28;;;;;;;14.80;9.77;;;9.10;99.90;;;;;;5080790;28;20200;-64
2021/12/27 09:44:57;;;;;;;14.50;8.90;;;9.10;99.90;;;;;;5076121;28;20265;-64
2021/12/27 09:47:26;;;;;;;14.00;10.00;;;9.10;99.90;;;;;;5075199;28;20253;-64
2021/12/27 09:50:18;;;;;;;19.17;10.03;;;9.10;99.90;;;;;;5073199;28;20202;-64
2021/12/27 09:52:47;;;;;;;17.07;11.27;;;9.10;99.90;;;;;;5061415;28;20264;-64
2021/12/27 09:55:17;;;;;;;17.47;11.50;;;9.10;99.90;;;;;;5079669;28;20231;-64
2021/12/27 09:57:46;;;;;;;13.70;9.63;;;9.20;99.90;;;;;;5056652;28;20232;-64
2021/12/27 10:00:16;;;;;;;14.63;8.83;;;9.20;99.90;;;;;;5073116;28;20303;-64
2021/12/27 10:02:45;;;;;;;13.30;8.97;;;9.20;99.90;;;;;;5079748;28;20291;-64
2021/12/27 10:05:14;;;;;;;11.10;8.43;;;9.20;99.90;;;;;;5075249;28;20240;-64
2021/12/27 10:07:43;;;;;;;10.93;7.83;;;9.30;99.90;;;;;;5081054;28;20276;-64
2021/12/27 10:10:18;;;;;;;13.27;7.73;;;9.20;99.90;;;;;;5073619;28;20195;-64
2021/12/27 10:12:49;;;;;;;9.70;8.10;;;9.30;99.90;;;;;;5076761;28;20215;-64
2021/12/27 10:15:20;;;;;;;13.30;8.60;;;9.30;99.90;;;;;;5064075;28;20706;-64
2021/12/27 10:17:50;;;;;;;11.23;7.77;;;9.30;99.90;;;;;;5065642;28;20769;-64
2021/12/27 10:20:20;;;;;;;15.57;7.90;;;9.40;99.90;;;;;;5081782;28;20281;-64
2021/12/27 10:22:51;;;;;;;12.50;7.87;;;9.40;99.90;;;;;;5075158;28;20253;-64
2021/12/27 10:25:22;;;;;;;9.33;7.47;;;9.40;99.90;;;;;;5086090;28;20270;-64
2021/12/27 10:27:55;;;;;;;9.00;6.83;;;9.50;99.90;;;;;;5074403;28;20223;-64
2021/12/27 10:30:25;;;;;;;12.40;7.40;;;9.50;99.90;;;;;;5082165;28;20286;-64
2021/12/27 10:33:04;;;;;;;7.47;6.60;;;9.50;99.90;;;;;;5082199;28;20551;-64
2021/12/27 10:35:38;;;;;;;11.47;6.17;;;9.60;99.90;;;;;;5085876;28;20712;-64
2021/12/27 10:38:17;;;;;;;8.03;6.50;;;9.60;99.90;;;;;;5085322;28;20204;-64
2021/12/27 10:40:50;;;;;;;8.63;6.50;;;9.60;99.90;;;;;;5063182;28;20280;-64
2021/12/27 10:43:34;;;;;;;9.77;6.40;;;9.60;99.90;;;;;;5080654;28;20270;-64
2021/12/27 10:46:04;;;;;;;7.70;6.07;;;9.70;99.90;;;;;;5090117;28;20278;-64
2021/12/27 10:48:34;;;;;;;8.57;6.63;;;9.70;99.90;;;;;;5082827;28;20187;-64
2021/12/27 10:51:03;;;;;;;7.73;6.40;;;9.70;99.90;;;;;;5082885;28;20658;-64
2021/12/27 10:53:43;;;;;;;7.73;6.13;;;9.70;99.90;;;;;;5077772;28;20283;-64
2021/12/27 10:56:12;;;;;;;8.67;6.67;;;9.70;99.90;;;;;;5074216;28;20223;-64
2021/12/27 10:58:49;;;;;;;12.20;7.27;;;9.70;99.90;;;;;;5076634;28;20231;-64
2021/12/27 11:01:22;;;;;;;8.00;6.73;;;9.80;99.90;;;;;;5084200;28;20272;-64
2021/12/27 11:03:52;;;;;;;10.43;9.30;;;9.80;99.90;;;;;;5085563;28;20203;-64
2021/12/27 11:06:22;;;;;;;9.57;6.67;;;9.90;99.90;;;;;;5068862;28;20845;-64
2021/12/27 11:08:52;;;;;;;11.30;8.87;;;9.90;99.90;;;;;;5054021;28;20248;-64
2021/12/27 11:11:22;;;;;;;9.57;6.90;;;10.00;99.90;;;;;;5075329;28;20681;-64
2021/12/27 11:13:54;;;;;;;7.33;6.60;;;10.00;99.90;;;;;;5081020;28;20192;-64
2021/12/27 11:16:22;;;;;;;13.33;5.50;;;10.10;99.90;;;;;;5080799;28;20195;-64
2021/12/27 11:18:51;;;;;;;8.93;5.60;;;10.00;99.90;;;;;;5074211;28;20199;-64
2021/12/27 11:21:22;;;;;;;11.53;5.60;;;10.00;99.90;;;;;;5064428;28;20311;-64
2021/12/27 11:23:53;;;;;;;8.63;6.13;;;10.00;99.90;;;;;;5063009;28;20183;-64
2021/12/27 11:26:30;;;;;;;8.30;6.10;;;10.10;99.90;;;;;;5073678;28;20245;-65
2021/12/27 11:29:15;;;;;;;8.30;5.33;;;10.10;99.90;;;;;;5075177;28;20657;-65
2021/12/27 11:31:44;;;;;;;8.03;6.33;;;10.10;99.90;;;;;;5068573;28;20283;-64
2021/12/27 11:34:17;;;;;;;7.83;5.53;;;10.10;99.90;;;;;;5057769;28;20717;-64
2021/12/27 11:36:48;;;;;;;6.70;5.80;;;10.10;99.90;;;;;;5056659;28;20673;-64
2021/12/27 11:39:26;;;;;;;6.63;5.10;;;10.20;99.90;;;;;;5079605;28;20737;-64
2021/12/27 11:41:59;;;;;;;11.90;7.63;;;10.20;99.90;;;;;;5056431;28;20208;-64
2021/12/27 11:44:40;;;;;;;7.00;4.90;;;10.20;99.90;;;;;;5076466;28;20202;-64
2021/12/27 11:47:10;;;;;;;7.33;5.30;;;10.30;99.90;;;;;;5082377;28;20230;-64
2021/12/27 11:49:59;;;;;;;8.97;5.40;;;10.30;99.90;;;;;;5080469;28;20199;-64
2021/12/27 11:52:29;;;;;;;6.13;5.27;;;10.40;99.90;;;;;;5084332;28;20217;-64
2021/12/27 11:55:00;;;;;;;9.33;5.83;;;10.40;99.90;;;;;;5073108;28;20267;-64
2021/12/27 11:57:52;;;;;;;6.93;5.60;;;10.40;99.90;;;;;;5071082;28;20784;-64
2021/12/27 12:00:49;;;;;;;5.70;5.17;;;10.40;99.90;;;;;;5063369;28;20200;-64
2021/12/27 12:03:57;;;;;;;6.43;5.70;;;10.40;99.90;;;;;;5079096;28;20210;-64
2021/12/27 12:07:05;;;;;;;7.07;5.90;;;10.40;99.90;;;;;;5082762;28;20555;-64
2021/12/27 12:09:43;;;;;;;15.80;5.83;;;10.30;99.90;;;;;;5062599;28;20730;-64
2021/12/27 12:12:13;;;;;;;7.17;5.93;;;10.20;99.90;;;;;;5067068;28;20257;-64
2021/12/27 12:15:02;;;;;;;12.87;6.47;;;10.20;99.90;;;;;;5083284;28;20314;-64
2021/12/27 12:17:44;;;;;;;11.33;6.70;;;10.20;99.90;;;;;;5095489;28;20225;-64
2021/12/27 12:20:27;;;;;;;9.40;6.57;;;10.20;99.90;;;;;;5043851;28;20195;-64
2021/12/27 12:23:00;;;;;;;7.50;6.77;;;10.20;99.90;;;;;;5075653;28;20215;-65
2021/12/27 12:25:28;;;;;;;14.20;8.17;;;10.20;99.90;;;;;;5059771;28;20311;-64
2021/12/27 12:28:00;;;;;;;8.90;7.17;;;10.20;99.90;;;;;;5072458;28;20231;-64
2021/12/27 12:30:32;;;;;;;12.47;8.40;;;10.20;99.90;;;;;;5052329;28;20552;-64
2021/12/27 12:33:06;;;;;;;13.10;8.07;;;10.10;99.90;;;;;;5070828;28;20206;-64
2021/12/27 12:35:41;;;;;;;18.17;9.40;;;10.10;99.90;;;;;;5061196;28;20277;-65
2021/12/27 12:38:12;;;;;;;14.17;8.87;;;10.10;99.90;;;;;;5075281;28;20248;-64
2021/12/27 12:40:41;;;;;;;15.17;8.57;;;10.10;99.90;;;;;;5077604;28;20286;-64
2021/12/27 12:43:10;;;;;;;14.17;7.97;;;10.10;99.90;;;;;;5083897;28;20216;-64
2021/12/27 12:45:39;;;;;;;9.00;7.23;;;10.10;99.90;;;;;;5075806;28;20288;-64
2021/12/27 12:48:09;;;;;;;10.90;7.23;;;10.10;99.90;;;;;;5078517;28;20227;-64
2021/12/27 12:50:37;;;;;;;17.23;7.17;;;10.10;99.90;;;;;;5076350;28;20208;-64
2021/12/27 12:53:06;;;;;;;13.63;7.23;;;10.10;99.90;;;;;;5078690;28;20525;-65
2021/12/27 12:55:39;;;;;;;9.73;7.40;;;10.10;99.90;;;;;;5082339;28;20195;-64